• °C
  • Pobieranie danych...
wx


PRINT OUT SECTION, show »

METAR EPBY 122000Z 27008KT CAVOK 13/12 Q1011=

METAR EPGD 122000Z 29015KT 9999 FEW043 13/07 Q1008 =

METAR EPKK 122000Z 26010KT 9999 FEW003 BKN020CB 16/16 Q1012 =

METAR EPKT 122000Z 31007KT 9999 FEW008 14/13 Q1013 =

METAR EPLB 122000Z 30004KT 5000 -SHRA BR SCT007 BKN018CB 16/16 Q1008
=

METAR EPLL 122000Z 27012KT 250V310 9999 BKN010 14/14 Q1011 =

METAR EPMO 122000Z 29005KT 9999 FEW015CB SCT029 13/13 Q1009 RESHRA =

METAR EPPO 122000Z 28008KT 9999 -SHRA FEW031 BKN048CB 14/12 Q1014 =

METAR EPRA 122000Z NIL=

METAR EPRZ 122000Z 26007KT 9999 -SHRA BKN040CB 18/17 Q1010 =

METAR EPSC 122000Z 29013KT CAVOK 15/07 Q1014 =

METAR EPSY 122000Z VRB03KT 9999 FEW035 13/13 Q1008=

METAR EPWA 122000Z 27010KT 9999 -SHRA SCT008 SCT033CB 15/14 Q1008
TEMPO BKN008=

METAR EPWR 122000Z 30009KT CAVOK 14/13 Q1015 =

METAR EPZG 122000Z 29005KT 240V330 9999 FEW015 14/13 Q1015 =



IMGW-PIB Sites